createdAt,value
2023-06-21T00:00:13.359Z,44.83
2023-06-21T00:02:15.500Z,44.98
2023-06-21T00:04:17.356Z,44.66
2023-06-21T00:06:19.190Z,44.72
2023-06-21T00:08:20.852Z,44.92
2023-06-21T00:10:24.610Z,44.88
2023-06-21T00:12:27.056Z,44.70
2023-06-21T00:14:28.583Z,44.79
2023-06-21T00:16:30.016Z,44.83
2023-06-21T00:18:31.479Z,44.83
2023-06-21T00:20:33.089Z,44.78
2023-06-21T00:22:36.504Z,44.71
2023-06-21T00:24:38.040Z,45.13
2023-06-21T00:26:39.525Z,45.05
2023-06-21T00:28:41.080Z,44.89
2023-06-21T00:30:42.596Z,44.94
2023-06-21T00:32:44.100Z,44.78
2023-06-21T00:34:48.083Z,45.09
2023-06-21T00:36:49.569Z,44.96
2023-06-21T00:38:51.000Z,45.10
2023-06-21T00:40:54.286Z,45.11
2023-06-21T00:42:55.926Z,44.87
2023-06-21T00:44:57.693Z,44.96
2023-06-21T00:46:59.282Z,45.05
2023-06-21T00:49:01.054Z,44.92
2023-06-21T00:51:02.726Z,45.26
2023-06-21T00:53:04.246Z,45.02
2023-06-21T00:55:06.430Z,45.08
2023-06-21T00:57:08.443Z,45.15
2023-06-21T00:59:10.444Z,45.12
2023-06-21T01:01:11.891Z,45.19
2023-06-21T01:05:22.121Z,45.15
2023-06-21T01:07:38.862Z,45.46
2023-06-21T01:09:59.057Z,45.36
2023-06-21T01:12:07.614Z,45.31
2023-06-21T01:14:22.975Z,45.21
2023-06-21T01:16:27.073Z,45.23
2023-06-21T01:18:29.851Z,45.26
2023-06-21T01:20:34.999Z,45.24
2023-06-21T01:22:56.291Z,45.25
2023-06-21T01:25:10.262Z,45.24
2023-06-21T01:27:29.724Z,45.25
2023-06-21T01:29:32.409Z,45.16
2023-06-21T01:31:34.574Z,45.29
2023-06-21T01:33:36.685Z,45.16
2023-06-21T01:35:38.325Z,45.17
2023-06-21T01:37:43.784Z,45.30
2023-06-21T01:39:45.933Z,45.08
2023-06-21T01:41:47.679Z,45.40
2023-06-21T01:43:49.449Z,45.28
2023-06-21T01:45:51.408Z,45.38
2023-06-21T01:47:53.682Z,45.11
2023-06-21T01:49:55.973Z,45.17
2023-06-21T01:51:58.092Z,45.24
2023-06-21T01:53:59.631Z,45.34
2023-06-21T01:56:02.496Z,45.18
2023-06-21T01:58:05.230Z,45.27
2023-06-21T02:00:17.723Z,45.33
2023-06-21T02:02:20.368Z,45.39
2023-06-21T02:04:22.338Z,45.21
2023-06-21T02:06:27.862Z,45.26
2023-06-21T02:08:29.933Z,45.33
2023-06-21T02:10:31.948Z,45.33
2023-06-21T02:12:36.439Z,45.09
2023-06-21T02:14:39.138Z,45.34
2023-06-21T02:16:40.682Z,45.34
2023-06-21T02:18:42.237Z,45.46
2023-06-21T02:20:43.802Z,45.31
2023-06-21T02:22:45.832Z,45.35
2023-06-21T02:24:47.445Z,45.18
2023-06-21T02:26:48.998Z,45.28
2023-06-21T02:28:50.593Z,45.45
2023-06-21T02:30:52.120Z,45.13
2023-06-21T02:32:53.833Z,45.38
2023-06-21T02:34:55.448Z,45.40
2023-06-21T02:36:56.988Z,45.27
2023-06-21T02:38:58.562Z,45.42
2023-06-21T02:41:00.049Z,45.27
2023-06-21T02:43:01.699Z,45.59
2023-06-21T02:45:03.424Z,45.33
2023-06-21T02:47:05.126Z,45.26
2023-06-21T02:49:06.752Z,45.47
2023-06-21T02:51:08.581Z,45.23
2023-06-21T02:53:10.131Z,45.46
2023-06-21T02:55:11.882Z,45.44
2023-06-21T02:57:13.377Z,45.53
2023-06-21T02:59:14.997Z,45.29
2023-06-21T03:01:17.252Z,45.21
2023-06-21T03:03:18.963Z,45.45
2023-06-21T03:05:20.835Z,45.48
2023-06-21T03:07:24.430Z,45.36
2023-06-21T03:09:25.958Z,45.41
2023-06-21T03:11:27.468Z,45.24
2023-06-21T03:13:29.131Z,45.35
2023-06-21T03:15:30.612Z,45.24
2023-06-21T03:17:32.233Z,45.39
2023-06-21T03:19:34.014Z,45.12
2023-06-21T03:21:35.623Z,45.49
2023-06-21T03:23:37.141Z,45.48
2023-06-21T03:25:38.623Z,45.45
2023-06-21T03:27:40.305Z,45.50
2023-06-21T03:29:42.164Z,45.34
2023-06-21T03:31:43.645Z,45.52
2023-06-21T03:33:45.366Z,45.39
2023-06-21T03:35:47.895Z,45.40
2023-06-21T03:37:49.493Z,45.37
2023-06-21T03:39:51.002Z,45.50
2023-06-21T03:41:52.897Z,45.53
2023-06-21T03:43:54.626Z,45.35
2023-06-21T03:45:56.261Z,45.55
2023-06-21T03:47:57.803Z,45.51
2023-06-21T03:49:59.344Z,45.59
2023-06-21T03:52:00.881Z,45.33
2023-06-21T03:54:02.354Z,45.28
2023-06-21T03:56:04.440Z,45.32
2023-06-21T03:58:06.129Z,45.54
2023-06-21T04:00:08.184Z,45.40
2023-06-21T04:02:09.953Z,45.47
2023-06-21T04:04:11.729Z,45.56
2023-06-21T04:06:13.801Z,45.48
2023-06-21T04:08:15.288Z,45.32
2023-06-21T04:10:17.661Z,45.41
2023-06-21T04:12:19.209Z,45.28
2023-06-21T04:14:20.742Z,45.45
2023-06-21T04:16:22.265Z,45.46
2023-06-21T04:18:23.750Z,45.61
2023-06-21T04:20:25.508Z,45.34
2023-06-21T04:22:27.083Z,45.40
2023-06-21T04:24:28.794Z,45.33
2023-06-21T04:26:30.394Z,45.59
2023-06-21T04:28:32.128Z,45.40
2023-06-21T04:30:35.886Z,45.50
2023-06-21T04:32:45.929Z,45.37
2023-06-21T04:34:49.581Z,45.45
2023-06-21T04:36:51.504Z,45.55
2023-06-21T04:38:52.974Z,45.46
2023-06-21T04:40:54.518Z,45.53
2023-06-21T04:42:56.483Z,45.61
2023-06-21T04:44:59.321Z,45.49
2023-06-21T04:47:01.727Z,45.53
2023-06-21T04:49:05.181Z,45.36
2023-06-21T04:51:06.744Z,45.40
2023-06-21T04:53:08.227Z,45.45
2023-06-21T04:55:10.511Z,45.46
2023-06-21T04:57:13.695Z,45.43
2023-06-21T04:59:15.315Z,45.50
2023-06-21T05:01:16.876Z,45.47
2023-06-21T05:03:18.593Z,45.60
2023-06-21T05:05:20.246Z,45.59
2023-06-21T05:07:21.761Z,45.53
2023-06-21T05:09:23.277Z,45.75
2023-06-21T05:11:24.916Z,45.57
2023-06-21T05:13:29.138Z,45.40
2023-06-21T05:15:30.577Z,45.53
2023-06-21T05:17:32.069Z,45.62
2023-06-21T05:19:33.646Z,45.52
2023-06-21T05:21:35.175Z,45.46
2023-06-21T05:23:36.699Z,45.61
2023-06-21T05:25:38.224Z,45.52
2023-06-21T05:27:39.721Z,45.51
2023-06-21T05:29:41.340Z,45.45
2023-06-21T05:31:44.094Z,45.60
2023-06-21T05:33:45.769Z,45.56
2023-06-21T05:35:47.412Z,45.60
2023-06-21T05:37:48.913Z,45.53
2023-06-21T05:39:50.531Z,45.57
2023-06-21T05:41:51.962Z,45.70
2023-06-21T05:43:53.496Z,45.66
2023-06-21T05:45:55.160Z,45.64
2023-06-21T05:47:59.900Z,45.75
2023-06-21T05:50:01.455Z,45.68
2023-06-21T05:52:02.962Z,45.70
2023-06-21T05:54:04.581Z,45.62
2023-06-21T05:56:06.060Z,45.40
2023-06-21T05:58:07.721Z,45.77
2023-06-21T06:00:10.662Z,45.63
2023-06-21T06:02:12.291Z,45.60
2023-06-21T06:04:13.924Z,45.62
2023-06-21T06:06:16.288Z,45.84
2023-06-21T06:08:17.726Z,45.76
2023-06-21T06:10:19.279Z,45.67
2023-06-21T06:12:22.675Z,45.70
2023-06-21T06:14:24.368Z,45.60
2023-06-21T06:16:25.861Z,45.69
2023-06-21T06:18:28.138Z,45.61
2023-06-21T06:20:29.842Z,45.70
2023-06-21T06:22:32.178Z,45.70
2023-06-21T06:24:33.713Z,45.57
2023-06-21T06:26:35.423Z,45.89
2023-06-21T06:28:36.889Z,45.66
2023-06-21T06:30:38.453Z,45.73
2023-06-21T06:32:39.904Z,45.52
2023-06-21T06:34:41.402Z,45.68
2023-06-21T06:36:42.906Z,45.71
2023-06-21T06:38:48.185Z,45.60
2023-06-21T06:40:49.659Z,45.71
2023-06-21T06:42:51.140Z,45.63
2023-06-21T06:44:54.124Z,45.79
2023-06-21T06:46:55.700Z,45.79
2023-06-21T06:48:57.332Z,45.75
2023-06-21T06:50:58.959Z,45.75
2023-06-21T06:53:01.928Z,45.72
2023-06-21T06:55:05.094Z,45.81
2023-06-21T06:57:06.880Z,45.61
2023-06-21T06:59:08.649Z,45.59
2023-06-21T07:01:10.304Z,45.62
2023-06-21T07:05:20.543Z,45.65
2023-06-21T07:07:22.947Z,45.66
2023-06-21T07:09:25.065Z,45.77
2023-06-21T07:11:26.672Z,45.54
2023-06-21T07:13:28.288Z,45.76
2023-06-21T07:15:29.927Z,45.56
2023-06-21T07:19:39.729Z,45.52
2023-06-21T07:21:41.282Z,45.53
2023-06-21T07:23:42.772Z,45.41
2023-06-21T07:25:44.278Z,45.51
2023-06-21T07:27:45.782Z,45.62
2023-06-21T07:29:47.244Z,45.55
2023-06-21T07:31:49.541Z,45.45
2023-06-21T07:33:54.479Z,45.43
2023-06-21T07:35:56.108Z,45.45
2023-06-21T07:37:57.635Z,45.46
2023-06-21T07:39:59.197Z,45.49
2023-06-21T07:42:13.942Z,45.35
2023-06-21T07:44:16.389Z,45.35
2023-06-21T07:46:18.142Z,45.35
2023-06-21T07:48:21.355Z,45.52
2023-06-21T07:50:24.432Z,45.24
2023-06-21T07:52:26.084Z,45.43
2023-06-21T07:54:27.562Z,45.45
2023-06-21T07:56:29.090Z,45.37
2023-06-21T07:58:30.934Z,45.43
2023-06-21T08:00:32.470Z,45.43
2023-06-21T08:02:35.258Z,45.33
2023-06-21T08:04:38.372Z,45.48
2023-06-21T08:06:42.607Z,45.23
2023-06-21T08:08:44.170Z,45.61
2023-06-21T08:10:45.727Z,45.29
2023-06-21T08:12:47.346Z,45.30
2023-06-21T08:14:48.813Z,45.37
2023-06-21T08:16:50.528Z,45.41
2023-06-21T08:18:52.458Z,45.31
2023-06-21T08:20:56.626Z,45.49
2023-06-21T08:22:58.180Z,45.49
2023-06-21T08:24:59.685Z,45.49
2023-06-21T08:27:01.311Z,45.48
2023-06-21T08:29:03.283Z,45.60
2023-06-21T08:31:04.928Z,45.78
2023-06-21T08:33:06.551Z,45.64
2023-06-21T08:35:08.572Z,45.87
2023-06-21T08:37:10.210Z,45.82
2023-06-21T08:39:11.725Z,45.76
2023-06-21T08:41:13.245Z,45.66
2023-06-21T08:43:14.778Z,45.63
2023-06-21T08:45:16.286Z,45.76
2023-06-21T08:47:18.556Z,45.77
2023-06-21T08:53:32.578Z,45.69
2023-06-21T08:55:36.562Z,45.63
2023-06-21T08:57:51.017Z,45.69
2023-06-21T08:59:57.832Z,45.83
2023-06-21T09:02:04.315Z,45.84
2023-06-21T09:04:08.457Z,45.73
2023-06-21T09:06:16.136Z,45.84
2023-06-21T09:08:17.790Z,45.60
2023-06-21T09:10:22.324Z,45.64
2023-06-21T09:12:26.024Z,45.80
2023-06-21T09:14:32.465Z,45.80
2023-06-21T09:16:34.648Z,45.85
2023-06-21T09:18:38.354Z,45.71
2023-06-21T09:20:39.807Z,45.68
2023-06-21T09:22:41.863Z,45.64
2023-06-21T09:24:45.071Z,45.61
2023-06-21T09:26:46.786Z,45.47
2023-06-21T09:28:48.465Z,45.35
2023-06-21T09:30:50.057Z,45.39
2023-06-21T09:32:51.976Z,45.61
2023-06-21T09:34:53.652Z,45.33
2023-06-21T09:36:55.439Z,45.16
2023-06-21T09:39:12.995Z,45.36
2023-06-21T09:46:05.102Z,45.16
2023-06-21T09:48:06.953Z,45.08
2023-06-21T09:50:09.248Z,45.22
2023-06-21T09:52:10.724Z,45.10
2023-06-21T09:54:12.630Z,45.19
2023-06-21T09:56:18.210Z,45.10
2023-06-21T09:58:19.747Z,45.04
2023-06-21T10:00:21.294Z,45.38
2023-06-21T10:02:23.076Z,45.02
2023-06-21T10:04:24.959Z,45.10
2023-06-21T10:06:29.630Z,44.92
2023-06-21T10:08:34.656Z,45.15
2023-06-21T10:10:36.586Z,44.96
2023-06-21T10:12:38.040Z,44.87
2023-06-21T10:14:40.612Z,44.97
2023-06-21T10:16:42.197Z,44.79
2023-06-21T10:18:43.699Z,44.94
2023-06-21T10:20:45.328Z,44.89
2023-06-21T10:22:52.770Z,44.96
2023-06-21T10:24:57.008Z,44.85
2023-06-21T10:26:59.120Z,44.94
2023-06-21T10:29:03.071Z,44.81
2023-06-21T10:31:05.222Z,45.16
2023-06-21T10:33:07.800Z,44.89
2023-06-21T10:35:14.848Z,44.98
2023-06-21T10:37:22.342Z,44.84
2023-06-21T10:39:26.192Z,44.80
2023-06-21T10:41:28.430Z,44.99
2023-06-21T10:43:30.246Z,45.14
2023-06-21T10:45:34.426Z,45.14
2023-06-21T10:47:36.474Z,44.90
2023-06-21T10:49:38.627Z,44.95
2023-06-21T10:51:41.695Z,44.91
2023-06-21T10:53:43.386Z,44.90
2023-06-21T10:55:45.048Z,45.02
2023-06-21T10:57:47.668Z,44.99
2023-06-21T10:59:49.374Z,44.96
2023-06-21T11:01:51.648Z,45.12
2023-06-21T11:03:53.398Z,45.17
2023-06-21T11:06:15.500Z,44.78
2023-06-21T11:08:17.297Z,44.97
2023-06-21T11:10:21.309Z,45.18
2023-06-21T11:12:25.703Z,45.13
2023-06-21T11:14:30.188Z,44.85
2023-06-21T11:16:32.963Z,44.91
2023-06-21T11:18:34.513Z,44.96
2023-06-21T11:20:49.424Z,45.08
2023-06-21T11:22:57.894Z,44.79
2023-06-21T11:25:15.204Z,44.94
2023-06-21T11:27:17.111Z,45.08
2023-06-21T11:29:18.631Z,45.04
2023-06-21T11:31:24.347Z,44.91
2023-06-21T11:33:30.625Z,44.75
2023-06-21T11:35:51.172Z,44.69
2023-06-21T11:37:57.540Z,44.87
2023-06-21T11:40:06.909Z,44.82
2023-06-21T11:42:08.459Z,44.89
2023-06-21T11:44:11.526Z,44.72
2023-06-21T11:46:23.888Z,44.87
2023-06-21T11:48:25.461Z,44.86
2023-06-21T11:50:37.139Z,44.73
2023-06-21T11:52:38.959Z,44.80
2023-06-21T11:54:40.570Z,44.51
2023-06-21T11:56:43.779Z,44.64
2023-06-21T11:58:46.898Z,44.69
2023-06-21T12:00:48.754Z,44.54
2023-06-21T12:02:50.366Z,44.37
2023-06-21T12:04:52.196Z,44.45
2023-06-21T12:06:55.188Z,44.55
2023-06-21T12:08:58.344Z,44.31
2023-06-21T12:11:00.505Z,44.43
2023-06-21T12:13:22.219Z,44.49
2023-06-21T12:15:23.655Z,44.31
2023-06-21T12:17:25.643Z,44.26
2023-06-21T12:19:27.221Z,44.28
2023-06-21T12:21:28.719Z,44.33
2023-06-21T12:23:30.313Z,44.26
2023-06-21T12:25:40.801Z,44.16
2023-06-21T12:27:58.010Z,44.32
2023-06-21T12:30:01.858Z,44.27
2023-06-21T12:32:04.668Z,44.21
2023-06-21T12:34:06.137Z,44.07
2023-06-21T12:36:27.215Z,44.16
2023-06-21T12:38:28.719Z,44.21
2023-06-21T12:40:30.626Z,44.00
2023-06-21T12:42:32.619Z,43.98
2023-06-21T12:44:34.151Z,44.03
2023-06-21T12:46:41.783Z,44.37
2023-06-21T12:48:44.292Z,44.31
2023-06-21T12:50:45.933Z,44.25
2023-06-21T12:52:59.053Z,44.08
2023-06-21T12:55:02.162Z,44.30
2023-06-21T12:57:03.769Z,43.98
2023-06-21T12:59:05.824Z,43.97
2023-06-21T13:01:07.549Z,44.12
2023-06-21T13:03:09.470Z,44.12
2023-06-21T13:05:11.120Z,44.15
2023-06-21T13:07:12.676Z,43.90
2023-06-21T13:09:15.130Z,43.94
2023-06-21T13:11:17.410Z,43.64
2023-06-21T13:13:18.999Z,43.80
2023-06-21T13:15:20.469Z,43.91
2023-06-21T13:17:22.121Z,43.38
2023-06-21T13:19:26.439Z,43.47
2023-06-21T13:21:28.894Z,43.47
2023-06-21T13:23:30.461Z,43.84
2023-06-21T13:25:32.402Z,43.75
2023-06-21T13:27:35.515Z,43.52
2023-06-21T13:29:37.062Z,43.44
2023-06-21T13:31:38.530Z,43.76
2023-06-21T13:33:41.009Z,43.31
2023-06-21T13:35:42.762Z,43.37
2023-06-21T13:37:44.240Z,43.29
2023-06-21T13:39:45.775Z,43.48
2023-06-21T13:41:47.300Z,43.19
2023-06-21T13:43:49.425Z,43.42
2023-06-21T13:45:51.113Z,43.15
2023-06-21T13:47:52.660Z,43.17
2023-06-21T13:49:54.191Z,43.52
2023-06-21T13:51:55.965Z,43.07
2023-06-21T13:53:57.553Z,43.16
2023-06-21T13:55:59.204Z,43.46
2023-06-21T13:58:00.756Z,42.99
2023-06-21T14:00:02.389Z,43.19
2023-06-21T14:02:05.488Z,43.01
2023-06-21T14:04:07.270Z,43.34
2023-06-21T14:06:08.940Z,42.97
2023-06-21T14:08:10.522Z,43.43
2023-06-21T14:10:12.683Z,43.36
2023-06-21T14:12:14.198Z,43.24
2023-06-21T14:14:15.641Z,43.04
2023-06-21T14:16:17.094Z,43.33
2023-06-21T14:18:18.853Z,43.31
2023-06-21T14:20:23.026Z,43.22
2023-06-21T14:22:27.595Z,43.16
2023-06-21T14:24:29.105Z,42.76
2023-06-21T14:26:31.521Z,42.79
2023-06-21T14:28:34.852Z,43.05
2023-06-21T14:30:36.416Z,42.70
2023-06-21T14:32:38.068Z,43.01
2023-06-21T14:34:44.479Z,42.83
2023-06-21T14:36:46.117Z,42.56
2023-06-21T14:38:48.005Z,42.87
2023-06-21T14:40:49.915Z,42.56
2023-06-21T14:42:51.422Z,42.75
2023-06-21T14:44:52.955Z,42.57
2023-06-21T14:46:54.530Z,42.91
2023-06-21T14:48:56.209Z,42.42
2023-06-21T14:51:00.108Z,42.50
2023-06-21T14:53:02.154Z,42.47
2023-06-21T14:55:03.696Z,42.86
2023-06-21T14:57:05.301Z,42.44
2023-06-21T14:59:06.817Z,42.71
2023-06-21T15:01:08.372Z,42.62
2023-06-21T15:03:10.018Z,42.34
2023-06-21T15:05:11.557Z,42.43
2023-06-21T15:07:16.896Z,42.57
2023-06-21T15:09:18.433Z,42.67
2023-06-21T15:11:20.868Z,42.51
2023-06-21T15:13:22.415Z,42.62
2023-06-21T15:15:23.984Z,42.66
2023-06-21T15:17:25.511Z,42.61
2023-06-21T15:19:27.011Z,42.61
2023-06-21T15:21:28.516Z,42.80
2023-06-21T15:23:30.102Z,42.53
2023-06-21T15:25:31.758Z,42.43
2023-06-21T15:27:34.252Z,42.58
2023-06-21T15:29:35.727Z,42.45
2023-06-21T15:31:37.907Z,42.85
2023-06-21T15:33:41.380Z,42.82
2023-06-21T15:35:42.898Z,42.83
2023-06-21T15:37:44.393Z,42.27
2023-06-21T15:39:45.902Z,42.31
2023-06-21T15:41:49.125Z,42.58
2023-06-21T15:43:50.628Z,42.49
2023-06-21T15:45:53.484Z,42.49
2023-06-21T15:47:55.145Z,42.25
2023-06-21T15:49:56.863Z,42.18
2023-06-21T15:51:58.379Z,42.27
2023-06-21T15:54:00.102Z,42.20
2023-06-21T15:56:01.572Z,42.23
2023-06-21T15:58:02.991Z,42.22
2023-06-21T16:00:04.833Z,42.22
2023-06-21T16:02:06.371Z,42.11
2023-06-21T16:04:07.887Z,42.12
2023-06-21T16:06:09.679Z,42.32
2023-06-21T16:08:11.335Z,42.22
2023-06-21T16:10:13.035Z,42.18
2023-06-21T16:12:15.181Z,42.66
2023-06-21T16:14:16.618Z,42.11
2023-06-21T16:16:18.274Z,42.44
2023-06-21T16:18:19.976Z,42.40
2023-06-21T16:20:21.471Z,42.19
2023-06-21T16:22:23.000Z,42.46
2023-06-21T16:24:24.680Z,42.60
2023-06-21T16:26:26.773Z,42.27
2023-06-21T16:28:28.948Z,42.15
2023-06-21T16:30:30.584Z,42.63
2023-06-21T16:32:32.144Z,42.30
2023-06-21T16:34:33.614Z,42.11
2023-06-21T16:36:35.380Z,42.21
2023-06-21T16:38:36.861Z,42.55
2023-06-21T16:40:38.613Z,42.09
2023-06-21T16:42:40.289Z,42.43
2023-06-21T16:44:41.833Z,42.62
2023-06-21T16:46:43.354Z,42.13
2023-06-21T16:48:47.599Z,42.27
2023-06-21T16:50:50.307Z,42.23
2023-06-21T16:52:51.794Z,42.59
2023-06-21T16:54:53.264Z,42.27
2023-06-21T16:57:02.341Z,42.15
2023-06-21T16:59:06.758Z,42.24
2023-06-21T17:01:08.830Z,42.18
2023-06-21T17:03:10.702Z,42.41
2023-06-21T17:05:12.416Z,42.37
2023-06-21T17:07:13.925Z,42.08
2023-06-21T17:09:15.420Z,42.33
2023-06-21T17:11:17.042Z,41.99
2023-06-21T17:13:18.542Z,42.15
2023-06-21T17:15:20.036Z,42.00
2023-06-21T17:17:21.760Z,42.24
2023-06-21T17:19:23.278Z,42.02
2023-06-21T17:21:25.167Z,41.76
2023-06-21T17:23:26.672Z,41.82
2023-06-21T17:25:28.372Z,41.81
2023-06-21T17:27:30.197Z,41.87
2023-06-21T17:29:31.838Z,42.09
2023-06-21T17:31:33.486Z,41.91
2023-06-21T17:33:35.162Z,42.07
2023-06-21T17:35:36.728Z,41.99
2023-06-21T17:37:38.269Z,41.64
2023-06-21T17:39:40.567Z,42.06
2023-06-21T17:41:42.308Z,41.79
2023-06-21T17:43:43.944Z,41.55
2023-06-21T17:45:45.451Z,41.81
2023-06-21T17:47:47.071Z,41.70
2023-06-21T17:49:48.693Z,41.72
2023-06-21T17:51:50.268Z,41.52
2023-06-21T17:53:52.153Z,41.97
2023-06-21T17:55:53.601Z,41.64
2023-06-21T17:57:55.189Z,41.92
2023-06-21T17:59:56.734Z,41.55
2023-06-21T18:01:58.293Z,41.94
2023-06-21T18:04:00.255Z,42.00
2023-06-21T18:06:02.376Z,41.95
2023-06-21T18:08:03.961Z,41.69
2023-06-21T18:10:05.494Z,41.53
2023-06-21T18:12:08.748Z,41.65
2023-06-21T18:14:10.526Z,42.03
2023-06-21T18:16:12.261Z,41.55
2023-06-21T18:18:13.903Z,41.58
2023-06-21T18:20:15.437Z,41.44
2023-06-21T18:22:19.667Z,41.52
2023-06-21T18:24:25.664Z,41.50
2023-06-21T18:26:28.432Z,41.79
2023-06-21T18:28:29.903Z,41.42
2023-06-21T18:30:31.525Z,41.39
2023-06-21T18:32:34.431Z,41.44
2023-06-21T18:34:36.006Z,41.62
2023-06-21T18:36:37.736Z,41.57
2023-06-21T18:38:39.222Z,41.43
2023-06-21T18:40:41.483Z,41.45
2023-06-21T18:42:43.191Z,41.47
2023-06-21T18:44:45.402Z,41.65
2023-06-21T18:46:47.188Z,41.44
2023-06-21T18:48:50.470Z,41.47
2023-06-21T18:50:52.338Z,41.40
2023-06-21T18:52:53.801Z,41.80
2023-06-21T18:54:55.376Z,41.75
2023-06-21T18:56:56.928Z,41.66
2023-06-21T18:58:58.490Z,41.56
2023-06-21T19:01:00.095Z,41.69
2023-06-21T19:03:01.785Z,41.76
2023-06-21T19:05:03.691Z,41.47
2023-06-21T19:07:05.488Z,41.39
2023-06-21T19:09:06.981Z,41.33
2023-06-21T19:11:08.540Z,41.70
2023-06-21T19:13:11.729Z,41.39
2023-06-21T19:15:13.326Z,41.56
2023-06-21T19:17:14.797Z,41.66
2023-06-21T19:19:16.250Z,41.38
2023-06-21T19:21:17.863Z,41.69
2023-06-21T19:23:19.326Z,41.69
2023-06-21T19:25:20.891Z,41.39
2023-06-21T19:27:22.706Z,41.38
2023-06-21T19:29:24.241Z,41.35
2023-06-21T19:31:25.776Z,41.67
2023-06-21T19:33:27.362Z,41.81
2023-06-21T19:35:30.113Z,41.85
2023-06-21T19:37:31.695Z,41.71
2023-06-21T19:39:33.255Z,41.42
2023-06-21T19:41:34.864Z,41.69
2023-06-21T19:43:36.376Z,41.65
2023-06-21T19:45:37.838Z,41.83
2023-06-21T19:47:39.367Z,41.78
2023-06-21T19:49:42.939Z,41.87
2023-06-21T19:51:44.434Z,41.80
2023-06-21T19:53:45.939Z,41.87
2023-06-21T19:55:47.456Z,41.80
2023-06-21T19:57:48.968Z,41.99
2023-06-21T19:59:50.550Z,41.67
2023-06-21T20:01:52.096Z,41.93
2023-06-21T20:03:53.606Z,41.93
2023-06-21T20:05:56.598Z,42.00
2023-06-21T20:07:58.152Z,42.05
2023-06-21T20:09:59.773Z,41.96
2023-06-21T20:12:01.234Z,42.14
2023-06-21T20:14:02.670Z,42.18
2023-06-21T20:16:10.203Z,42.18
2023-06-21T20:18:11.899Z,42.25
2023-06-21T20:20:13.751Z,42.30
2023-06-21T20:22:16.693Z,42.31
2023-06-21T20:24:18.218Z,42.19
2023-06-21T20:26:19.788Z,42.34
2023-06-21T20:28:21.673Z,42.21
2023-06-21T20:30:23.358Z,42.30
2023-06-21T20:32:25.238Z,42.17
2023-06-21T20:34:26.808Z,42.31
2023-06-21T20:36:29.655Z,42.34
2023-06-21T20:38:32.330Z,42.27
2023-06-21T20:40:33.875Z,42.13
2023-06-21T20:42:35.617Z,42.28
2023-06-21T20:44:39.161Z,42.46
2023-06-21T20:46:41.152Z,42.15
2023-06-21T20:48:44.250Z,42.17
2023-06-21T20:50:46.566Z,42.52
2023-06-21T20:52:48.285Z,42.45
2023-06-21T20:54:50.073Z,42.58
2023-06-21T20:56:52.213Z,42.29
2023-06-21T20:58:54.524Z,42.51
2023-06-21T21:00:56.560Z,42.30
2023-06-21T21:02:58.116Z,42.43
2023-06-21T21:04:59.626Z,42.26
2023-06-21T21:07:01.267Z,42.35
2023-06-21T21:09:03.646Z,42.53
2023-06-21T21:11:06.021Z,42.66
2023-06-21T21:13:08.408Z,42.68
2023-06-21T21:15:10.245Z,42.23
2023-06-21T21:17:13.187Z,42.37
2023-06-21T21:19:14.882Z,42.40
2023-06-21T21:21:16.777Z,42.29
2023-06-21T21:23:18.317Z,42.43
2023-06-21T21:25:19.857Z,42.54
2023-06-21T21:27:21.389Z,42.63
2023-06-21T21:29:22.938Z,42.72
2023-06-21T21:31:24.550Z,42.44
2023-06-21T21:33:26.414Z,42.40
2023-06-21T21:35:27.912Z,42.77
2023-06-21T21:37:29.447Z,42.61
2023-06-21T21:39:30.999Z,42.73
2023-06-21T21:41:32.513Z,42.75
2023-06-21T21:43:34.415Z,42.89
2023-06-21T21:45:35.984Z,42.68
2023-06-21T21:47:37.632Z,42.56
2023-06-21T21:49:39.408Z,42.60
2023-06-21T21:51:41.007Z,42.69
2023-06-21T21:53:42.813Z,42.47
2023-06-21T21:55:45.595Z,42.54
2023-06-21T21:57:47.172Z,42.92
2023-06-21T21:59:48.615Z,42.61
2023-06-21T22:01:50.063Z,42.79
2023-06-21T22:03:51.715Z,42.62
2023-06-21T22:05:53.791Z,42.60
2023-06-21T22:07:55.342Z,42.81
2023-06-21T22:09:56.873Z,42.78
2023-06-21T22:11:58.403Z,42.81
2023-06-21T22:14:00.134Z,42.69
2023-06-21T22:16:02.922Z,42.81
2023-06-21T22:18:06.870Z,42.97
2023-06-21T22:20:11.078Z,42.72
2023-06-21T22:22:12.564Z,42.71
2023-06-21T22:24:14.335Z,42.91
2023-06-21T22:26:16.814Z,42.80
2023-06-21T22:28:18.348Z,43.00
2023-06-21T22:30:19.808Z,42.79
2023-06-21T22:32:21.426Z,42.74
2023-06-21T22:34:25.668Z,42.73
2023-06-21T22:36:27.337Z,42.87
2023-06-21T22:38:28.858Z,42.97
2023-06-21T22:40:30.795Z,42.80
2023-06-21T22:42:32.446Z,43.11
2023-06-21T22:44:34.950Z,43.15
2023-06-21T22:46:38.973Z,42.83
2023-06-21T22:48:41.143Z,42.91
2023-06-21T22:50:45.037Z,42.93
2023-06-21T22:52:48.915Z,42.92
2023-06-21T22:54:50.408Z,43.02
2023-06-21T22:56:52.169Z,42.83
2023-06-21T22:58:53.756Z,43.14
2023-06-21T23:00:55.289Z,43.09
2023-06-21T23:02:57.125Z,42.88
2023-06-21T23:04:59.334Z,43.11
2023-06-21T23:07:02.316Z,43.04
2023-06-21T23:09:04.960Z,43.05
2023-06-21T23:11:08.006Z,43.10
2023-06-21T23:13:09.586Z,42.97
2023-06-21T23:15:15.790Z,42.97
2023-06-21T23:17:17.232Z,43.14
2023-06-21T23:19:20.419Z,43.16
2023-06-21T23:21:26.021Z,43.07
2023-06-21T23:23:30.643Z,42.92
2023-06-21T23:25:32.262Z,43.14
2023-06-21T23:27:38.443Z,42.96
2023-06-21T23:29:43.760Z,42.88
2023-06-21T23:31:46.394Z,43.06
2023-06-21T23:33:47.943Z,43.24
2023-06-21T23:35:49.549Z,43.19
2023-06-21T23:37:55.132Z,43.34
2023-06-21T23:39:57.450Z,43.36
2023-06-21T23:41:59.595Z,43.01
2023-06-21T23:44:02.558Z,42.99
2023-06-21T23:46:05.006Z,43.45
2023-06-21T23:48:06.523Z,43.07
2023-06-21T23:50:08.336Z,43.14
2023-06-21T23:52:09.994Z,43.33
2023-06-21T23:54:11.843Z,43.22
2023-06-21T23:56:13.528Z,43.29
2023-06-21T23:58:14.951Z,43.31
